Time,TemperatureF,DewpointF,PressureIn,WindDirection,WindDirectionDegrees,WindSpeedMPH,WindSpeedGustMPH,Humidity,HourlyPrecipIn,Conditions,Clouds,dailyrainin,SoftwareType,DateUTC
2013-07-22 00:00:00,75.5,72.7,29.67,SSE,162,0.0,-999.0,86,0.00,,,0.00,Custom/Perl,2013-07-22 05:00:00,
2013-07-22 00:01:00,75.5,72.7,29.67,SSE,155,0.0,-999.0,86,0.00,,,0.00,Custom/Perl,2013-07-22 05:01:00,
2013-07-22 00:02:00,75.5,72.7,29.67,SSE,155,0.0,-999.0,86,0.00,,,0.00,Custom/Perl,2013-07-22 05:02:00,
2013-07-22 00:07:00,75.6,72.8,29.67,South,185,0.0,-999.0,86,0.00,,,0.00,Custom/Perl,2013-07-22 05:07:00,
2013-07-22 00:13:00,75.7,72.7,29.67,SW,217,0.0,-999.0,85,0.00,,,0.00,Custom/Perl,2013-07-22 05:13:00,
2013-07-22 00:18:00,75.5,72.7,29.67,SW,217,0.0,-999.0,86,0.00,,,0.00,Custom/Perl,2013-07-22 05:18:00,
2013-07-22 00:23:00,75.5,72.7,29.67,SW,219,0.0,-999.0,86,0.00,,,0.00,Custom/Perl,2013-07-22 05:23:00,
2013-07-22 00:28:00,75.5,72.7,29.68,SW,217,0.0,-999.0,86,0.00,,,0.00,Custom/Perl,2013-07-22 05:28:00,
2013-07-22 00:34:00,75.3,72.7,29.68,SW,216,0.0,-999.0,87,0.00,,,0.00,Custom/Perl,2013-07-22 05:34:00,
2013-07-22 00:39:00,75.2,72.6,29.67,SSW,206,0.0,-999.0,87,0.00,,,0.00,Custom/Perl,2013-07-22 05:39:00,
2013-07-22 00:44:00,75.1,72.5,29.68,SSW,206,0.0,-999.0,87,0.00,,,0.00,Custom/Perl,2013-07-22 05:44:00,
2013-07-22 00:49:00,74.9,72.3,29.68,SSW,206,0.0,-999.0,87,0.00,,,0.00,Custom/Perl,2013-07-22 05:49:00,
2013-07-22 00:54:00,74.8,72.2,29.68,SSW,206,0.0,-999.0,87,0.00,,,0.00,Custom/Perl,2013-07-22 05:54:00,
2013-07-22 01:00:00,74.3,71.9,29.68,SSW,206,0.0,-999.0,88,0.00,,,0.00,Custom/Perl,2013-07-22 06:00:00,
2013-07-22 01:05:00,73.9,71.7,29.68,SSW,206,0.0,-999.0,89,0.00,,,0.00,Custom/Perl,2013-07-22 06:05:00,
2013-07-22 01:10:00,73.7,71.5,29.68,SSW,206,0.0,-999.0,89,0.00,,,0.00,Custom/Perl,2013-07-22 06:10:00,
2013-07-22 01:15:00,73.6,71.6,29.67,SSW,206,0.0,-999.0,90,0.00,,,0.00,Custom/Perl,2013-07-22 06:15:00,
2013-07-22 01:20:00,73.3,71.3,29.67,SSW,206,0.0,-999.0,90,0.00,,,0.00,Custom/Perl,2013-07-22 06:20:00,
2013-07-22 01:26:00,73.3,71.5,29.67,SSW,206,0.0,-999.0,91,0.00,,,0.00,Custom/Perl,2013-07-22 06:26:00,
2013-07-22 01:31:00,73.3,71.5,29.67,SSW,206,0.0,-999.0,91,0.00,,,0.00,Custom/Perl,2013-07-22 06:31:00,
2013-07-22 01:36:00,73.2,71.2,29.67,SSW,206,0.0,-999.0,90,0.00,,,0.00,Custom/Perl,2013-07-22 06:36:00,
2013-07-22 01:41:00,72.9,70.9,29.67,SSW,206,0.0,-999.0,90,0.00,,,0.00,Custom/Perl,2013-07-22 06:41:00,
2013-07-22 01:47:00,72.7,70.9,29.67,SSW,206,0.0,-999.0,91,0.00,,,0.00,Custom/Perl,2013-07-22 06:47:00,
2013-07-22 01:52:00,72.5,70.7,29.67,SSW,206,0.0,-999.0,91,0.00,,,0.00,Custom/Perl,2013-07-22 06:52:00,
2013-07-22 01:57:00,72.2,70.4,29.66,SSW,206,0.0,-999.0,91,0.00,,,0.00,Custom/Perl,2013-07-22 06:57:00,
2013-07-22 02:02:00,72.0,70.2,29.66,SSW,206,0.0,-999.0,91,0.00,,,0.00,Custom/Perl,2013-07-22 07:02:00,
2013-07-22 02:07:00,71.7,70.1,29.66,SSW,206,0.0,-999.0,92,0.00,,,0.00,Custom/Perl,2013-07-22 07:07:00,
2013-07-22 02:12:00,71.6,70.2,29.66,SSW,206,0.0,-999.0,93,0.00,,,0.00,Custom/Perl,2013-07-22 07:12:00,
2013-07-22 02:18:00,71.4,70.0,29.66,SSW,206,0.0,-999.0,93,0.00,,,0.00,Custom/Perl,2013-07-22 07:18:00,
2013-07-22 02:23:00,71.2,69.8,29.66,SSW,206,0.0,-999.0,93,0.00,,,0.00,Custom/Perl,2013-07-22 07:23:00,
2013-07-22 02:28:00,71.3,70.1,29.66,SSW,206,0.0,-999.0,94,0.00,,,0.00,Custom/Perl,2013-07-22 07:28:00,
2013-07-22 02:33:00,71.3,70.1,29.65,SSW,206,0.0,-999.0,94,0.00,,,0.00,Custom/Perl,2013-07-22 07:33:00,
2013-07-22 02:39:00,71.2,70.2,29.66,SSW,206,0.0,-999.0,95,0.00,,,0.00,Custom/Perl,2013-07-22 07:39:00,
2013-07-22 02:44:00,71.0,69.8,29.65,SSW,206,0.0,-999.0,94,0.00,,,0.00,Custom/Perl,2013-07-22 07:44:00,
2013-07-22 02:49:00,71.1,70.1,29.65,SSW,206,0.0,-999.0,95,0.00,,,0.00,Custom/Perl,2013-07-22 07:49:00,
2013-07-22 02:54:00,71.2,70.0,29.65,SSW,206,0.0,-999.0,94,0.00,,,0.00,Custom/Perl,2013-07-22 07:54:00,
2013-07-22 02:59:00,71.2,70.0,29.64,SSW,206,0.0,-999.0,94,0.00,,,0.00,Custom/Perl,2013-07-22 07:59:00,
2013-07-22 03:08:00,70.8,69.4,29.64,SSW,206,0.0,-999.0,93,0.00,,,0.00,Custom/Perl,2013-07-22 08:08:00,
2013-07-22 03:13:00,70.7,69.5,29.64,SSW,206,0.0,-999.0,94,0.00,,,0.00,Custom/Perl,2013-07-22 08:13:00,
2013-07-22 03:18:00,70.5,69.1,29.64,SSW,206,0.0,-999.0,93,0.00,,,0.00,Custom/Perl,2013-07-22 08:18:00,
2013-07-22 03:24:00,70.3,68.9,29.63,SSW,206,0.0,-999.0,93,0.00,,,0.00,Custom/Perl,2013-07-22 08:24:00,
2013-07-22 03:29:00,70.2,68.8,29.63,SSW,206,0.0,-999.0,93,0.00,,,0.00,Custom/Perl,2013-07-22 08:29:00,
2013-07-22 03:34:00,69.9,68.5,29.63,SSW,206,0.0,-999.0,93,0.00,,,0.00,Custom/Perl,2013-07-22 08:34:00,
2013-07-22 03:39:00,69.7,68.5,29.63,SSW,206,0.0,-999.0,94,0.00,,,0.00,Custom/Perl,2013-07-22 08:39:00,
2013-07-22 03:45:00,69.7,68.7,29.62,SSW,206,0.0,-999.0,95,0.00,,,0.00,Custom/Perl,2013-07-22 08:45:00,
2013-07-22 03:50:00,69.6,68.4,29.62,SSW,206,0.0,-999.0,94,0.00,,,0.00,Custom/Perl,2013-07-22 08:50:00,
2013-07-22 03:55:00,69.7,68.7,29.62,SSW,206,0.0,-999.0,95,0.00,,,0.00,Custom/Perl,2013-07-22 08:55:00,
2013-07-22 04:00:00,69.7,68.7,29.62,SSW,206,0.0,-999.0,95,0.00,,,0.00,Custom/Perl,2013-07-22 09:00:00,
2013-07-22 04:05:00,69.6,68.6,29.62,SSW,206,0.0,-999.0,95,0.00,,,0.00,Custom/Perl,2013-07-22 09:05:00,
2013-07-22 04:10:00,69.5,68.5,29.62,SSW,206,0.0,-999.0,95,0.00,,,0.00,Custom/Perl,2013-07-22 09:10:00,
2013-07-22 04:16:00,69.5,68.5,29.62,SSW,206,0.0,-999.0,95,0.00,,,0.00,Custom/Perl,2013-07-22 09:16:00,
2013-07-22 04:21:00,69.4,68.4,29.62,SSW,206,0.0,-999.0,95,0.00,,,0.00,Custom/Perl,2013-07-22 09:21:00,
2013-07-22 04:26:00,69.3,68.3,29.62,SSW,206,0.0,-999.0,95,0.00,,,0.00,Custom/Perl,2013-07-22 09:26:00,
2013-07-22 04:31:00,69.4,68.6,29.62,SSW,206,0.0,-999.0,96,0.00,,,0.00,Custom/Perl,2013-07-22 09:31:00,
2013-07-22 04:37:00,69.4,68.6,29.62,SSW,206,0.0,-999.0,96,0.00,,,0.00,Custom/Perl,2013-07-22 09:37:00,
2013-07-22 04:42:00,69.5,68.7,29.62,SSW,206,0.0,-999.0,96,0.00,,,0.00,Custom/Perl,2013-07-22 09:42:00,
2013-07-22 04:47:00,69.4,68.6,29.63,SSW,206,0.0,-999.0,96,0.00,,,0.00,Custom/Perl,2013-07-22 09:47:00,
2013-07-22 04:52:00,69.3,68.5,29.63,SSW,206,0.0,-999.0,96,0.00,,,0.00,Custom/Perl,2013-07-22 09:52:00,
2013-07-22 05:09:00,69.1,68.3,29.63,SSW,206,0.0,-999.0,96,0.00,,,0.00,Custom/Perl,2013-07-22 10:09:00,
2013-07-22 05:14:00,69.1,68.3,29.63,SSW,206,0.0,-999.0,96,0.00,,,0.00,Custom/Perl,2013-07-22 10:14:00,
2013-07-22 05:19:00,69.0,68.2,29.63,SSW,206,0.0,-999.0,96,0.00,,,0.00,Custom/Perl,2013-07-22 10:19:00,
2013-07-22 05:24:00,69.0,68.2,29.63,SSW,206,0.0,-999.0,96,0.00,,,0.00,Custom/Perl,2013-07-22 10:24:00,
2013-07-22 05:30:00,69.0,68.2,29.62,SSW,206,0.0,-999.0,96,0.00,,,0.00,Custom/Perl,2013-07-22 10:30:00,
2013-07-22 05:35:00,69.0,68.2,29.63,SSW,206,0.0,-999.0,96,0.00,,,0.00,Custom/Perl,2013-07-22 10:35:00,
2013-07-22 05:40:00,69.0,68.2,29.62,SSW,206,0.0,-999.0,96,0.00,,,0.00,Custom/Perl,2013-07-22 10:40:00,
2013-07-22 05:45:00,69.2,68.6,29.62,SSW,206,0.0,-999.0,97,0.00,,,0.00,Custom/Perl,2013-07-22 10:45:00,
2013-07-22 05:51:00,69.4,68.8,29.63,SSW,205,0.0,-999.0,97,0.00,,,0.00,Custom/Perl,2013-07-22 10:51:00,
2013-07-22 05:56:00,69.3,68.7,29.63,SSW,205,0.0,-999.0,97,0.00,,,0.00,Custom/Perl,2013-07-22 10:56:00,
2013-07-22 06:01:00,69.2,68.6,29.63,SSW,205,0.0,-999.0,97,0.00,,,0.00,Custom/Perl,2013-07-22 11:01:00,
2013-07-22 06:06:00,69.2,68.6,29.63,SSW,205,0.0,-999.0,97,0.00,,,0.00,Custom/Perl,2013-07-22 11:06:00,
2013-07-22 06:11:00,69.3,68.7,29.63,SSW,205,0.0,-999.0,97,0.00,,,0.00,Custom/Perl,2013-07-22 11:11:00,
2013-07-22 06:17:00,69.9,69.5,29.63,SSW,205,0.0,-999.0,98,0.00,,,0.00,Custom/Perl,2013-07-22 11:17:00,
2013-07-22 06:22:00,70.2,69.8,29.63,SSW,206,0.0,-999.0,98,0.00,,,0.00,Custom/Perl,2013-07-22 11:22:00,
2013-07-22 06:27:00,70.4,70.0,29.63,SSW,205,0.0,-999.0,98,0.00,,,0.00,Custom/Perl,2013-07-22 11:27:00,
2013-07-22 06:32:00,70.5,70.1,29.63,SSW,206,0.0,-999.0,98,0.00,,,0.00,Custom/Perl,2013-07-22 11:32:00,
2013-07-22 06:37:00,70.7,70.3,29.63,SSW,206,0.0,-999.0,98,0.00,,,0.00,Custom/Perl,2013-07-22 11:37:00,
2013-07-22 06:43:00,70.8,70.2,29.64,SSW,205,0.0,-999.0,97,0.00,,,0.00,Custom/Perl,2013-07-22 11:43:00,
2013-07-22 06:48:00,70.9,70.3,29.63,SSW,206,0.0,-999.0,97,0.00,,,0.00,Custom/Perl,2013-07-22 11:48:00,
2013-07-22 06:53:00,71.0,70.4,29.63,SSW,207,0.0,-999.0,97,0.00,,,0.00,Custom/Perl,2013-07-22 11:53:00,
2013-07-22 06:58:00,71.4,71.0,29.64,SW,214,0.0,-999.0,98,0.00,,,0.00,Custom/Perl,2013-07-22 11:58:00,
2013-07-22 07:03:00,71.6,71.0,29.63,South,172,0.0,-999.0,97,0.00,,,0.00,Custom/Perl,2013-07-22 12:03:00,
2013-07-22 07:09:00,71.8,71.2,29.63,SSW,202,0.0,-999.0,97,0.00,,,0.00,Custom/Perl,2013-07-22 12:09:00,
2013-07-22 07:14:00,72.1,71.5,29.63,South,186,1.0,-999.0,97,0.00,,,0.00,Custom/Perl,2013-07-22 12:14:00,
2013-07-22 07:19:00,72.4,71.6,29.64,South,190,0.0,-999.0,96,0.00,,,0.00,Custom/Perl,2013-07-22 12:19:00,
2013-07-22 07:24:00,72.6,71.8,29.64,SW,229,0.0,-999.0,96,0.00,,,0.00,Custom/Perl,2013-07-22 12:24:00,
2013-07-22 07:30:00,72.8,71.8,29.64,SSE,165,0.0,-999.0,95,0.00,,,0.00,Custom/Perl,2013-07-22 12:30:00,
2013-07-22 07:35:00,73.0,72.0,29.64,SW,220,0.0,-999.0,95,0.00,,,0.00,Custom/Perl,2013-07-22 12:35:00,
2013-07-22 07:40:00,73.3,72.3,29.64,SW,232,0.0,-999.0,95,0.00,,,0.00,Custom/Perl,2013-07-22 12:40:00,
2013-07-22 07:45:00,73.5,72.5,29.64,South,190,0.0,-999.0,95,0.00,,,0.00,Custom/Perl,2013-07-22 12:45:00,
2013-07-22 07:50:00,73.8,72.8,29.64,SSW,192,0.0,-999.0,95,0.00,,,0.00,Custom/Perl,2013-07-22 12:50:00,
2013-07-22 07:56:00,74.3,73.1,29.65,SSE,166,0.0,-999.0,94,0.00,,,0.00,Custom/Perl,2013-07-22 12:56:00,
2013-07-22 08:01:00,74.8,73.4,29.65,South,176,0.0,-999.0,93,0.00,,,0.00,Custom/Perl,2013-07-22 13:01:00,
2013-07-22 08:06:00,75.2,73.6,29.65,SSW,208,0.0,-999.0,92,0.00,,,0.00,Custom/Perl,2013-07-22 13:06:00,
2013-07-22 08:11:00,75.7,74.1,29.65,ESE,112,1.0,-999.0,92,0.00,,,0.00,Custom/Perl,2013-07-22 13:11:00,
2013-07-22 08:16:00,76.1,74.3,29.65,SE,133,1.0,-999.0,91,0.00,,,0.00,Custom/Perl,2013-07-22 13:16:00,
2013-07-22 08:22:00,76.4,74.2,29.65,South,191,1.0,-999.0,89,0.00,,,0.00,Custom/Perl,2013-07-22 13:22:00,
2013-07-22 08:27:00,76.6,74.4,29.65,South,181,0.0,-999.0,89,0.00,,,0.00,Custom/Perl,2013-07-22 13:27:00,
2013-07-22 08:32:00,76.8,74.6,29.65,SW,219,2.0,-999.0,89,0.00,,,0.00,Custom/Perl,2013-07-22 13:32:00,
2013-07-22 08:37:00,77.1,74.9,29.65,South,179,2.0,-999.0,89,0.00,,,0.00,Custom/Perl,2013-07-22 13:37:00,
2013-07-22 08:43:00,77.5,75.1,29.65,South,181,2.0,-999.0,88,0.00,,,0.00,Custom/Perl,2013-07-22 13:43:00,
2013-07-22 08:48:00,77.9,75.3,29.64,SSW,208,0.0,-999.0,87,0.00,,,0.00,Custom/Perl,2013-07-22 13:48:00,
2013-07-22 08:53:00,78.3,75.7,29.65,West,259,1.0,-999.0,87,0.00,,,0.00,Custom/Perl,2013-07-22 13:53:00,
2013-07-22 08:58:00,78.5,75.7,29.64,NE,41,1.0,-999.0,86,0.00,,,0.00,Custom/Perl,2013-07-22 13:58:00,
2013-07-22 09:03:00,78.6,75.8,29.64,SW,217,0.0,-999.0,86,0.00,,,0.00,Custom/Perl,2013-07-22 14:03:00,
2013-07-22 09:09:00,78.8,75.8,29.64,South,169,2.0,-999.0,85,0.00,,,0.00,Custom/Perl,2013-07-22 14:09:00,
2013-07-22 09:14:00,78.9,75.9,29.64,South,179,2.0,-999.0,85,0.00,,,0.00,Custom/Perl,2013-07-22 14:14:00,
2013-07-22 09:19:00,79.2,76.4,29.64,SSE,151,2.0,-999.0,86,0.00,,,0.00,Custom/Perl,2013-07-22 14:19:00,
2013-07-22 09:24:00,79.4,76.4,29.64,West,276,1.0,-999.0,85,0.00,,,0.00,Custom/Perl,2013-07-22 14:24:00,
2013-07-22 09:30:00,79.7,76.5,29.64,WSW,250,1.0,-999.0,84,0.00,,,0.00,Custom/Perl,2013-07-22 14:30:00,
2013-07-22 09:35:00,80.1,76.9,29.64,NW,312,1.0,-999.0,84,0.00,,,0.00,Custom/Perl,2013-07-22 14:35:00,
2013-07-22 09:40:00,80.7,77.3,29.63,SW,232,1.0,-999.0,83,0.00,,,0.00,Custom/Perl,2013-07-22 14:40:00,
2013-07-22 09:45:00,81.0,77.2,29.63,SSW,196,2.0,-999.0,81,0.00,,,0.00,Custom/Perl,2013-07-22 14:45:00,
2013-07-22 09:51:00,81.3,77.5,29.63,ESE,104,2.0,-999.0,81,0.00,,,0.00,Custom/Perl,2013-07-22 14:51:00,
2013-07-22 09:56:00,81.6,77.8,29.64,SSW,207,2.0,-999.0,81,0.00,,,0.00,Custom/Perl,2013-07-22 14:56:00,
2013-07-22 10:01:00,82.1,78.1,29.64,SSW,200,2.0,-999.0,80,0.00,,,0.00,Custom/Perl,2013-07-22 15:01:00,
2013-07-22 10:06:00,82.5,78.3,29.64,South,174,3.0,-999.0,79,0.00,,,0.00,Custom/Perl,2013-07-22 15:06:00,
2013-07-22 10:11:00,83.0,78.8,29.64,SW,231,0.0,-999.0,79,0.00,,,0.00,Custom/Perl,2013-07-22 15:11:00,
2013-07-22 10:17:00,83.5,78.9,29.64,SW,229,4.0,-999.0,77,0.00,,,0.00,Custom/Perl,2013-07-22 15:17:00,
2013-07-22 11:19:00,86.9,81.3,29.66,SSE,150,2.0,-999.0,72,0.00,,,0.00,Custom/Perl,2013-07-22 16:19:00,
2013-07-22 11:24:00,87.7,81.5,29.65,South,191,4.0,-999.0,69,0.00,,,0.00,Custom/Perl,2013-07-22 16:24:00,
2013-07-22 11:29:00,87.6,81.6,29.65,SE,145,4.0,-999.0,70,0.00,,,0.00,Custom/Perl,2013-07-22 16:29:00,
2013-07-22 11:35:00,87.9,81.7,29.65,SSE,156,4.0,-999.0,69,0.00,,,0.00,Custom/Perl,2013-07-22 16:35:00,
2013-07-22 11:40:00,88.1,81.5,29.65,SSE,150,3.0,-999.0,67,0.00,,,0.00,Custom/Perl,2013-07-22 16:40:00,
2013-07-22 11:45:00,88.1,81.5,29.65,WSW,241,0.0,-999.0,67,0.00,,,0.00,Custom/Perl,2013-07-22 16:45:00,
2013-07-22 11:50:00,88.1,81.7,29.65,South,177,0.0,-999.0,68,0.00,,,0.00,Custom/Perl,2013-07-22 16:50:00,
2013-07-22 11:55:00,88.4,82.4,29.65,South,170,2.0,-999.0,70,0.00,,,0.00,Custom/Perl,2013-07-22 16:55:00,
2013-07-22 12:01:00,89.0,82.2,29.65,SSW,199,0.0,-999.0,66,0.00,,,0.00,Custom/Perl,2013-07-22 17:01:00,
2013-07-22 12:06:00,89.4,82.8,29.64,SSE,151,2.0,-999.0,67,0.00,,,0.00,Custom/Perl,2013-07-22 17:06:00,
2013-07-22 12:11:00,89.8,83.0,29.64,WSW,239,0.0,-999.0,66,0.00,,,0.00,Custom/Perl,2013-07-22 17:11:00,
2013-07-22 12:16:00,89.9,82.5,29.64,South,169,2.0,-999.0,63,0.00,,,0.00,Custom/Perl,2013-07-22 17:16:00,
2013-07-22 12:22:00,89.8,82.4,29.63,South,169,5.0,-999.0,63,0.00,,,0.00,Custom/Perl,2013-07-22 17:22:00,
2013-07-22 12:27:00,90.2,82.8,29.64,NNE,13,1.0,-999.0,63,0.00,,,0.00,Custom/Perl,2013-07-22 17:27:00,
2013-07-22 12:32:00,90.6,83.0,29.64,WSW,238,0.0,-999.0,62,0.00,,,0.00,Custom/Perl,2013-07-22 17:32:00,
2013-07-22 12:37:00,91.1,83.3,29.63,SE,141,4.0,-999.0,61,0.00,,,0.00,Custom/Perl,2013-07-22 17:37:00,
2013-07-22 12:42:00,91.2,83.6,29.63,SW,228,0.0,-999.0,62,0.00,,,0.00,Custom/Perl,2013-07-22 17:42:00,
2013-07-22 12:48:00,91.6,83.6,29.63,SSW,200,3.0,-999.0,60,0.00,,,0.00,Custom/Perl,2013-07-22 17:48:00,
2013-07-22 12:53:00,91.6,83.6,29.63,South,172,2.0,-999.0,60,0.00,,,0.00,Custom/Perl,2013-07-22 17:53:00,
2013-07-22 12:58:00,91.7,83.3,29.63,South,172,3.0,-999.0,58,0.00,,,0.00,Custom/Perl,2013-07-22 17:58:00,
2013-07-22 13:03:00,91.8,83.8,29.63,SE,144,3.0,-999.0,60,0.00,,,0.00,Custom/Perl,2013-07-22 18:03:00,
2013-07-22 13:09:00,91.9,83.5,29.62,SSW,192,2.0,-999.0,58,0.00,,,0.00,Custom/Perl,2013-07-22 18:09:00,
2013-07-22 13:14:00,92.2,83.8,29.62,SE,138,1.0,-999.0,58,0.00,,,0.00,Custom/Perl,2013-07-22 18:14:00,
2013-07-22 13:19:00,92.9,84.3,29.62,WNW,303,1.0,-999.0,57,0.00,,,0.00,Custom/Perl,2013-07-22 18:19:00,
2013-07-22 13:26:00,93.1,84.7,29.63,South,174,3.0,-999.0,58,0.00,,,0.00,Custom/Perl,2013-07-22 18:26:00,
2013-07-22 13:31:00,93.1,84.3,29.63,South,191,2.0,-999.0,56,0.00,,,0.00,Custom/Perl,2013-07-22 18:31:00,
2013-07-22 13:37:00,93.3,84.7,29.64,SSW,207,3.0,-999.0,57,0.00,,,0.00,Custom/Perl,2013-07-22 18:37:00,
2013-07-22 13:42:00,93.5,85.3,29.64,WNW,295,2.0,-999.0,59,0.00,,,0.00,Custom/Perl,2013-07-22 18:42:00,
2013-07-22 13:47:00,93.4,84.4,29.64,SW,229,3.0,-999.0,55,0.00,,,0.00,Custom/Perl,2013-07-22 18:47:00,
2013-07-22 13:53:00,93.3,84.1,29.64,WSW,243,2.0,-999.0,54,0.00,,,0.00,Custom/Perl,2013-07-22 18:53:00,
2013-07-22 13:59:00,93.0,83.6,29.64,South,169,1.0,-999.0,53,0.00,,,0.00,Custom/Perl,2013-07-22 18:59:00,
2013-07-22 14:04:00,92.8,83.8,29.63,NE,42,0.0,-999.0,55,0.00,,,0.00,Custom/Perl,2013-07-22 19:04:00,
2013-07-22 14:09:00,92.2,83.4,29.63,WSW,238,4.0,-999.0,56,0.00,,,0.00,Custom/Perl,2013-07-22 19:09:00,
2013-07-22 14:15:00,91.8,83.2,29.63,NW,323,3.0,-999.0,57,0.00,,,0.00,Custom/Perl,2013-07-22 19:15:00,
2013-07-22 14:20:00,91.4,82.8,29.62,SSW,192,5.0,-999.0,57,0.00,,,0.00,Custom/Perl,2013-07-22 19:20:00,
2013-07-22 14:25:00,91.1,82.9,29.62,SW,219,3.0,-999.0,59,0.00,,,0.00,Custom/Perl,2013-07-22 19:25:00,
2013-07-22 14:31:00,91.1,82.9,29.62,West,270,1.0,-999.0,59,0.00,,,0.00,Custom/Perl,2013-07-22 19:31:00,
2013-07-22 14:37:00,91.2,83.2,29.62,West,271,1.0,-999.0,60,0.00,,,0.00,Custom/Perl,2013-07-22 19:37:00,
2013-07-22 14:42:00,91.3,83.3,29.62,SSE,160,0.0,-999.0,60,0.00,,,0.00,Custom/Perl,2013-07-22 19:42:00,
2013-07-22 14:47:00,91.4,83.4,29.62,SE,138,3.0,-999.0,60,0.00,,,0.00,Custom/Perl,2013-07-22 19:47:00,
2013-07-22 14:52:00,91.2,83.2,29.62,South,182,0.0,-999.0,60,0.00,,,0.00,Custom/Perl,2013-07-22 19:52:00,
2013-07-22 14:58:00,91.1,83.3,29.61,WSW,257,0.0,-999.0,61,0.00,,,0.00,Custom/Perl,2013-07-22 19:58:00,
2013-07-22 15:03:00,91.0,83.0,29.61,SSE,155,1.0,-999.0,60,0.00,,,0.00,Custom/Perl,2013-07-22 20:03:00,
2013-07-22 15:08:00,90.8,82.4,29.61,SE,140,3.0,-999.0,58,0.00,,,0.00,Custom/Perl,2013-07-22 20:08:00,
2013-07-22 15:15:00,90.6,82.4,29.61,SSW,211,0.0,-999.0,59,0.00,,,0.00,Custom/Perl,2013-07-22 20:15:00,
2013-07-22 15:17:00,90.5,82.1,29.61,SSW,205,1.0,-999.0,58,0.00,,,0.00,Custom/Perl,2013-07-22 20:17:00,
2013-07-22 15:18:00,90.4,82.0,29.61,SW,215,1.0,-999.0,58,0.00,,,0.00,Custom/Perl,2013-07-22 20:18:00,
2013-07-22 15:20:00,90.3,81.9,29.61,East,98,1.0,-999.0,58,0.00,,,0.00,Custom/Perl,2013-07-22 20:20:00,
2013-07-22 15:23:00,90.3,82.1,29.61,SSE,168,2.0,-999.0,59,0.00,,,0.00,Custom/Perl,2013-07-22 20:23:00,
2013-07-22 15:28:00,90.1,81.7,29.61,ESE,106,3.0,-999.0,58,0.00,,,0.00,Custom/Perl,2013-07-22 20:28:00,
2013-07-22 15:33:00,90.0,81.8,29.61,SSW,198,2.0,-999.0,59,0.00,,,0.00,Custom/Perl,2013-07-22 20:33:00,
2013-07-22 15:38:00,90.3,81.7,29.61,East,79,1.0,-999.0,57,0.00,,,0.00,Custom/Perl,2013-07-22 20:38:00,
2013-07-22 15:43:00,90.6,81.6,29.61,SSW,200,1.0,-999.0,55,0.00,,,0.00,Custom/Perl,2013-07-22 20:43:00,
2013-07-22 15:49:00,91.0,81.8,29.61,SSE,150,0.0,-999.0,54,0.00,,,0.00,Custom/Perl,2013-07-22 20:49:00,
2013-07-22 15:54:00,91.2,82.0,29.60,SSE,163,2.0,-999.0,54,0.00,,,0.00,Custom/Perl,2013-07-22 20:54:00,
2013-07-22 15:59:00,91.3,82.1,29.60,South,172,6.0,-999.0,54,0.00,,,0.00,Custom/Perl,2013-07-22 20:59:00,
2013-07-22 16:04:00,91.7,82.3,29.60,SE,146,1.0,-999.0,53,0.00,,,0.00,Custom/Perl,2013-07-22 21:04:00,
2013-07-22 16:10:00,92.1,82.3,29.60,SSE,148,3.0,-999.0,51,0.00,,,0.00,Custom/Perl,2013-07-22 21:10:00,
2013-07-22 16:15:00,91.7,82.3,29.61,SSE,166,2.0,-999.0,53,0.00,,,0.00,Custom/Perl,2013-07-22 21:15:00,
2013-07-22 16:20:00,91.0,82.0,29.61,ESE,120,5.0,-999.0,55,0.00,,,0.00,Custom/Perl,2013-07-22 21:20:00,
2013-07-22 16:25:00,91.2,82.2,29.61,SSE,155,4.0,-999.0,55,0.00,,,0.00,Custom/Perl,2013-07-22 21:25:00,
2013-07-22 16:30:00,92.2,82.8,29.62,SW,222,3.0,-999.0,53,0.00,,,0.00,Custom/Perl,2013-07-22 21:30:00,
2013-07-22 16:36:00,93.2,83.6,29.61,SSE,162,6.0,-999.0,52,0.00,,,0.00,Custom/Perl,2013-07-22 21:36:00,
2013-07-22 16:41:00,92.9,82.7,29.62,SSW,204,4.0,-999.0,49,0.00,,,0.00,Custom/Perl,2013-07-22 21:41:00,
2013-07-22 16:46:00,91.9,82.5,29.62,WNW,288,1.0,-999.0,53,0.00,,,0.00,Custom/Perl,2013-07-22 21:46:00,
2013-07-22 16:51:00,91.2,81.0,29.63,SSE,152,4.0,-999.0,49,0.00,,,0.00,Custom/Perl,2013-07-22 21:51:00,
2013-07-22 16:56:00,90.7,80.7,29.63,SW,214,2.0,-999.0,50,0.00,,,0.00,Custom/Perl,2013-07-22 21:56:00,
2013-07-22 17:02:00,90.3,80.3,29.62,South,173,5.0,-999.0,50,0.00,,,0.00,Custom/Perl,2013-07-22 22:02:00,
2013-07-22 17:07:00,90.2,80.4,29.63,WNW,290,1.0,-999.0,51,0.00,,,0.00,Custom/Perl,2013-07-22 22:07:00,
2013-07-22 17:12:00,90.0,80.4,29.62,SSW,199,3.0,-999.0,52,0.00,,,0.00,Custom/Perl,2013-07-22 22:12:00,
2013-07-22 17:17:00,89.9,80.1,29.62,South,176,1.0,-999.0,51,0.00,,,0.00,Custom/Perl,2013-07-22 22:17:00,
2013-07-22 17:22:00,90.0,80.6,29.62,South,169,3.0,-999.0,53,0.00,,,0.00,Custom/Perl,2013-07-22 22:22:00,
2013-07-22 17:28:00,90.0,80.4,29.61,South,170,2.0,-999.0,52,0.00,,,0.00,Custom/Perl,2013-07-22 22:28:00,
2013-07-22 17:33:00,90.0,80.8,29.61,SSW,203,1.0,-999.0,54,0.00,,,0.00,Custom/Perl,2013-07-22 22:33:00,
2013-07-22 17:38:00,90.2,81.0,29.61,South,175,5.0,-999.0,54,0.00,,,0.00,Custom/Perl,2013-07-22 22:38:00,
2013-07-22 17:43:00,90.0,81.2,29.61,South,191,6.0,-999.0,56,0.00,,,0.00,Custom/Perl,2013-07-22 22:43:00,
2013-07-22 17:49:00,90.5,81.7,29.60,South,183,2.0,-999.0,56,0.00,,,0.00,Custom/Perl,2013-07-22 22:49:00,
2013-07-22 17:54:00,91.1,82.1,29.59,SSE,161,5.0,-999.0,55,0.00,,,0.00,Custom/Perl,2013-07-22 22:54:00,
2013-07-22 17:59:00,91.1,81.9,29.59,South,180,5.0,-999.0,54,0.00,,,0.00,Custom/Perl,2013-07-22 22:59:00,
2013-07-22 18:04:00,90.8,81.8,29.59,South,187,4.0,-999.0,55,0.00,,,0.00,Custom/Perl,2013-07-22 23:04:00,
2013-07-22 18:09:00,90.4,81.4,29.59,SSE,148,5.0,-999.0,55,0.00,,,0.00,Custom/Perl,2013-07-22 23:09:00,
2013-07-22 19:12:00,92.0,81.2,29.60,SSE,162,2.0,-999.0,46,0.00,,,0.00,Custom/Perl,2013-07-23 00:12:00,
2013-07-22 19:17:00,92.1,81.5,29.60,SSW,210,4.0,-999.0,47,0.00,,,0.00,Custom/Perl,2013-07-23 00:17:00,
2013-07-22 19:22:00,92.2,81.4,29.60,SE,141,1.0,-999.0,46,0.00,,,0.00,Custom/Perl,2013-07-23 00:22:00,
2013-07-22 19:27:00,92.0,81.2,29.60,SSE,150,2.0,-999.0,46,0.00,,,0.00,Custom/Perl,2013-07-23 00:27:00,
2013-07-22 19:33:00,91.5,81.1,29.60,SSE,151,0.0,-999.0,48,0.00,,,0.00,Custom/Perl,2013-07-23 00:33:00,
2013-07-22 19:38:00,91.1,80.9,29.60,SW,217,0.0,-999.0,49,0.00,,,0.00,Custom/Perl,2013-07-23 00:38:00,
2013-07-22 19:43:00,90.6,81.0,29.60,SSE,157,0.0,-999.0,52,0.00,,,0.00,Custom/Perl,2013-07-23 00:43:00,
2013-07-22 19:48:00,90.4,80.8,29.60,South,181,1.0,-999.0,52,0.00,,,0.00,Custom/Perl,2013-07-23 00:48:00,
2013-07-22 19:53:00,89.9,80.7,29.60,South,171,1.0,-999.0,54,0.00,,,0.00,Custom/Perl,2013-07-23 00:53:00,
2013-07-22 19:59:00,89.3,80.3,29.60,SSE,153,1.0,-999.0,55,0.00,,,0.00,Custom/Perl,2013-07-23 00:59:00,
2013-07-22 20:04:00,88.9,79.9,29.60,SSW,196,1.0,-999.0,55,0.00,,,0.00,Custom/Perl,2013-07-23 01:04:00,
2013-07-22 20:09:00,88.5,79.7,29.60,SSW,205,0.0,-999.0,56,0.00,,,0.00,Custom/Perl,2013-07-23 01:09:00,
2013-07-22 20:14:00,87.9,79.3,29.60,SSE,157,0.0,-999.0,57,0.00,,,0.00,Custom/Perl,2013-07-23 01:14:00,
2013-07-22 20:19:00,87.6,79.2,29.59,South,174,0.0,-999.0,58,0.00,,,0.00,Custom/Perl,2013-07-23 01:19:00,
2013-07-22 20:25:00,87.3,78.9,29.59,South,174,0.0,-999.0,58,0.00,,,0.00,Custom/Perl,2013-07-23 01:25:00,
2013-07-22 20:30:00,86.9,78.5,29.59,SSW,200,0.0,-999.0,58,0.00,,,0.00,Custom/Perl,2013-07-23 01:30:00,
2013-07-22 20:35:00,86.4,78.0,29.59,South,191,0.0,-999.0,58,0.00,,,0.00,Custom/Perl,2013-07-23 01:35:00,
2013-07-22 20:40:00,85.8,77.6,29.59,SSW,202,0.0,-999.0,59,0.00,,,0.00,Custom/Perl,2013-07-23 01:40:00,
2013-07-22 20:46:00,85.2,77.2,29.59,SSW,202,0.0,-999.0,60,0.00,,,0.00,Custom/Perl,2013-07-23 01:46:00,
2013-07-22 20:51:00,84.7,76.9,29.59,SSW,202,0.0,-999.0,61,0.00,,,0.00,Custom/Perl,2013-07-23 01:51:00,
2013-07-22 20:56:00,84.2,77.4,29.59,SSW,202,0.0,-999.0,66,0.00,,,0.00,Custom/Perl,2013-07-23 01:56:00,
2013-07-22 21:01:00,83.3,76.7,29.59,SSW,202,0.0,-999.0,67,0.00,,,0.00,Custom/Perl,2013-07-23 02:01:00,
2013-07-22 21:06:00,82.5,76.3,29.59,SSW,202,0.0,-999.0,69,0.00,,,0.00,Custom/Perl,2013-07-23 02:06:00,
2013-07-22 21:12:00,81.8,76.0,29.60,SSW,202,0.0,-999.0,71,0.00,,,0.00,Custom/Perl,2013-07-23 02:12:00,
2013-07-22 21:17:00,81.1,75.5,29.60,SSW,202,0.0,-999.0,72,0.00,,,0.00,Custom/Perl,2013-07-23 02:17:00,
2013-07-22 21:22:00,80.6,75.2,29.59,SSW,202,0.0,-999.0,73,0.00,,,0.00,Custom/Perl,2013-07-23 02:22:00,
2013-07-22 21:27:00,80.2,75.0,29.59,SSW,202,0.0,-999.0,74,0.00,,,0.00,Custom/Perl,2013-07-23 02:27:00,
2013-07-22 21:32:00,79.9,74.9,29.60,SSW,202,0.0,-999.0,75,0.00,,,0.00,Custom/Perl,2013-07-23 02:32:00,
2013-07-22 21:38:00,79.6,74.8,29.60,SSW,202,0.0,-999.0,76,0.00,,,0.00,Custom/Perl,2013-07-23 02:38:00,
2013-07-22 21:43:00,79.2,74.6,29.60,SSW,202,0.0,-999.0,77,0.00,,,0.00,Custom/Perl,2013-07-23 02:43:00,
2013-07-22 21:48:00,79.0,74.2,29.60,SSW,202,0.0,-999.0,76,0.00,,,0.00,Custom/Perl,2013-07-23 02:48:00,
2013-07-22 21:53:00,79.0,74.6,29.60,SSW,202,0.0,-999.0,78,0.00,,,0.00,Custom/Perl,2013-07-23 02:53:00,
2013-07-22 21:59:00,78.7,74.5,29.60,SSW,202,0.0,-999.0,79,0.00,,,0.00,Custom/Perl,2013-07-23 02:59:00,
2013-07-22 22:04:00,78.1,73.9,29.60,SSW,202,0.0,-999.0,79,0.00,,,0.00,Custom/Perl,2013-07-23 03:04:00,
2013-07-22 22:09:00,77.8,73.8,29.60,SSW,202,0.0,-999.0,80,0.00,,,0.00,Custom/Perl,2013-07-23 03:09:00,
2013-07-22 22:14:00,77.9,73.9,29.61,SSW,202,0.0,-999.0,80,0.00,,,0.00,Custom/Perl,2013-07-23 03:14:00,
2013-07-22 22:19:00,77.9,73.9,29.61,SSW,202,0.0,-999.0,80,0.00,,,0.00,Custom/Perl,2013-07-23 03:19:00,
2013-07-22 22:25:00,77.8,73.8,29.62,SSW,202,0.0,-999.0,80,0.00,,,0.00,Custom/Perl,2013-07-23 03:25:00,
2013-07-22 22:30:00,77.4,73.6,29.62,SSW,202,0.0,-999.0,81,0.00,,,0.00,Custom/Perl,2013-07-23 03:30:00,
2013-07-22 22:35:00,77.2,73.4,29.62,SSW,202,0.0,-999.0,81,0.00,,,0.00,Custom/Perl,2013-07-23 03:35:00,
2013-07-22 22:40:00,77.3,73.7,29.62,SW,215,0.0,-999.0,82,0.00,,,0.00,Custom/Perl,2013-07-23 03:40:00,
2013-07-22 22:46:00,77.8,74.2,29.63,SSW,209,0.0,-999.0,82,0.00,,,0.00,Custom/Perl,2013-07-23 03:46:00,
2013-07-22 22:51:00,78.0,74.4,29.63,SSW,202,0.0,-999.0,82,0.00,,,0.00,Custom/Perl,2013-07-23 03:51:00,
2013-07-22 22:56:00,78.1,74.5,29.63,SSE,155,0.0,-999.0,82,0.00,,,0.00,Custom/Perl,2013-07-23 03:56:00,
2013-07-22 23:01:00,78.2,74.6,29.63,SSE,154,0.0,-999.0,82,0.00,,,0.00,Custom/Perl,2013-07-23 04:01:00,
2013-07-22 23:02:00,78.3,74.7,29.63,SSE,154,0.0,-999.0,82,0.00,,,0.00,Custom/Perl,2013-07-23 04:02:00,
2013-07-22 23:04:00,78.3,74.9,29.63,SW,219,0.0,-999.0,83,0.00,,,0.00,Custom/Perl,2013-07-23 04:04:00,
2013-07-22 23:10:00,78.5,74.9,29.63,SE,146,1.0,-999.0,82,0.00,,,0.00,Custom/Perl,2013-07-23 04:10:00,
2013-07-22 23:15:00,78.7,75.1,29.63,SSE,160,1.0,-999.0,82,0.00,,,0.00,Custom/Perl,2013-07-23 04:15:00,
2013-07-22 23:20:00,78.7,75.1,29.64,SSE,158,0.0,-999.0,82,0.00,,,0.00,Custom/Perl,2013-07-23 04:20:00,
2013-07-22 23:25:00,78.6,75.0,29.64,SSE,158,0.0,-999.0,82,0.00,,,0.00,Custom/Perl,2013-07-23 04:25:00,
2013-07-22 23:30:00,78.4,75.0,29.64,SSE,158,0.0,-999.0,83,0.00,,,0.00,Custom/Perl,2013-07-23 04:30:00,
2013-07-22 23:36:00,78.3,75.1,29.64,SSE,158,0.0,-999.0,84,0.00,,,0.00,Custom/Perl,2013-07-23 04:36:00,
2013-07-22 23:41:00,78.3,75.1,29.64,SSE,165,0.0,-999.0,84,0.00,,,0.00,Custom/Perl,2013-07-23 04:41:00,
2013-07-22 23:46:00,78.3,75.1,29.64,SSW,199,0.0,-999.0,84,0.00,,,0.00,Custom/Perl,2013-07-23 04:46:00,
2013-07-22 23:51:00,78.1,74.9,29.64,SSW,199,0.0,-999.0,84,0.00,,,0.00,Custom/Perl,2013-07-23 04:51:00,